CheckWX is a tool to help pilots better visualize weather data.  It is not intended as a substitute for an official pre-flight weather briefing.

14:45:09 UTC

KMZH METAR
Moose Lake Carlton County Airport
Moose Lake, Minnesota, USA
Current

10 mins ago

KMZH 201435Z AUTO 03005KT 10SM CLR 11/00 A3015 RMK AO2
Observed
May-20 @ 14:35 UTC
Wind
  • 030° at 5 KTS
Visibility
10 SM
Flight Rules
VFR
Cloud Levels
  • Clear skies
Temperature
11°C / 52°F
Dewpoint
C / 32°F
Humidity
47%
Altimeter
30.15" Hg
Pressure
1021.02 hPa
Previous

30 mins ago

KMZH 201415Z AUTO 03004KT 10SM CLR 10/00 A3014 RMK AO2
Observed
May-20 @ 14:15 UTC
Wind
  • 030° at 4 KTS
Visibility
10 SM
Flight Rules
VFR
Cloud Levels
  • Clear skies
Temperature
10°C / 50°F
Dewpoint
C / 32°F
Humidity
50%
Altimeter
30.14" Hg
Pressure
1020.62 hPa
Previous

50 mins ago

KMZH 201355Z AUTO 04003KT 10SM CLR 10/01 A3014 RMK AO2
Observed
May-20 @ 13:55 UTC
Wind
  • 040° at 3 KTS
Visibility
10 SM
Flight Rules
VFR
Cloud Levels
  • Clear skies
Temperature
10°C / 50°F
Dewpoint
C / 34°F
Humidity
54%
Altimeter
30.14" Hg
Pressure
1020.62 hPa